サラエボ の空港の天気 - METARとTAF

サラエボ国際空港 ( LQSA / SJJ ) - ボスニア・ヘルツェゴビナ サラエボ
飛行場実況気象(Metar)
観測時間10/18 02:00 CEST (10/18 00:00 UTC)
風向・風速不定 1m/s
視程8000m
天気現象
なし
気温6℃
湿度100%
気圧1020hPa
METARLQSA 180000Z VRB02KT 8000 NSC 06/06 Q1020
過去の天気等 Google飛行場航空写真 Wunderground天気予報

過去48時間のMETAR

飛行場予報(TAF)
発表時間: 10/18 01:00 CEST (10/17 23:00 UTC)
予報対象時間: 18日2時 CEST ~ 19日2時 CEST
風向・風速不定 1m/s
視程10km以上
なし
18日4時 CEST ~ 18日10時 CEST に一時的に
視程3000m
天気現象もや
18日6時 CEST から 確率 40% で
視程300m
天気現象
全天の8割程度の雲 雲底高度 60m
TAF LQSA 172300Z 1800/1824 VRB02KT CAVOK TX23/1813Z TN05/1804Z
TEMPO 1802/1808 3000 BR
PROB40 1804/1807 0300 FG BKN002